• Join FlightAware (Why Join?)
  • Login
  • US Flag 
02:08AM EDT


 

Airport Tracker/Info


-or-


 

Live Flight TrackerFlight Track Log ✈ CSN6511 ✈ 19-May-2013 ✈ ZGSZ / SZX - ZHLY / LYA

Flight Track Log - Related Links

Times and Time Zones

All times are in EDT time to prevent confusion due to time zone crossing. See the CSN6511 flight status page for this flight to view local times or setup timezone preferences in your user account.

Time Position Orientation Groundspeed Altitude Reporting Facility
EDT Latitude Longitude Course Direction KTS MPH feet Rate Location/Type
09:20PM 22.7682 113.7988 354° North  Level Estimated
09:21PM 22.8969 113.7852 354° North  Level Estimated
09:22PM 23.0257 113.7716 354° North  Level Estimated
09:23PM 23.1544 113.7579 354° North  Level Estimated
09:24PM 23.2832 113.7442 354° North  Level Estimated
09:25PM 23.4119 113.7305 354° North  Level Estimated
09:26PM 23.5406 113.7167 354° North  Level Estimated
09:27PM 23.6694 113.7029 354° North  Level Estimated
09:28PM 23.7981 113.6891 354° North  Level Estimated
09:29PM 23.9268 113.6753 354° North  Level Estimated
09:30PM 24.0555 113.6614 354° North  Level Estimated
09:31PM 24.1843 113.6475 354° North  Level Estimated
09:32PM 24.3130 113.6336 354° North  Level Estimated
09:33PM 24.4417 113.6197 354° North  Level Estimated
09:34PM 24.5704 113.6057 354° North  Level Estimated
09:35PM 24.6992 113.5917 354° North  Level Estimated
09:36PM 24.8279 113.5777 354° North  Level Estimated
09:37PM 24.9566 113.5636 354° North  Level Estimated
09:38PM 25.0853 113.5495 354° North  Level Estimated
09:39PM 25.2141 113.5354 354° North  Level Estimated
09:40PM 25.3428 113.5213 354° North  Level Estimated
09:41PM 25.4715 113.5071 354° North  Level Estimated
09:42PM 25.6002 113.4929 354° North  Level Estimated
09:43PM 25.7289 113.4786 354° North  Level Estimated
09:44PM 25.8576 113.4644 354° North  Level Estimated
09:45PM 25.9863 113.4501 354° North  Level Estimated
09:46PM 26.1150 113.4357 354° North  Level Estimated
09:47PM 26.2437 113.4214 354° North  Level Estimated
09:48PM 26.3724 113.4070 354° North  Level Estimated
09:49PM 26.5011 113.3925 354° North  Level Estimated
09:50PM 26.6298 113.3781 354° North  Level Estimated
09:51PM 26.7585 113.3636 354° North  Level Estimated
09:52PM 26.8872 113.3491 354° North  Level Estimated
09:53PM 27.0159 113.3345 354° North  Level Estimated
09:54PM 27.1446 113.3199 354° North  Level Estimated
09:55PM 27.2733 113.3053 354° North  Level Estimated
09:56PM 27.4020 113.2906 354° North  Level Estimated
09:57PM 27.5307 113.2759 354° North  Level Estimated
09:58PM 27.6594 113.2612 354° North  Level Estimated
09:59PM 27.7881 113.2464 354° North  Level Estimated
10:00PM 27.9168 113.2316 354° North  Level Estimated
10:01PM 28.0455 113.2168 354° North  Level Estimated
10:02PM 28.1741 113.2019 354° North  Level Estimated
10:03PM 28.3028 113.1870 354° North  Level Estimated
10:04PM 28.4138 113.1741 354° North  Level Estimated
10:05PM 28.5248 113.1612 354° North  Level Estimated
10:06PM 28.6357 113.1483 354° North  Level Estimated
10:07PM 28.7467 113.1353 354° North  Level Estimated
10:08PM 28.8577 113.1223 354° North  Level Estimated
10:09PM 28.9686 113.1093 354° North  Level Estimated
10:10PM 29.0796 113.0963 354° North  Level Estimated
10:11PM 29.1906 113.0832 354° North  Level Estimated
10:12PM 29.3015 113.0701 354° North  Level Estimated
10:13PM 29.4125 113.0569 354° North  Level Estimated
10:14PM 29.5234 113.0438 354° North  Level Estimated
10:15PM 29.6344 113.0306 354° North  Level Estimated
10:16PM 29.7454 113.0174 354° North  Level Estimated
10:17PM 29.8563 113.0041 354° North  Level Estimated
10:18PM 29.9673 112.9908 354° North  Level Estimated
10:19PM 30.0782 112.9775 354° North  Level Estimated
10:20PM 30.1892 112.9642 354° North  Level Estimated
10:21PM 30.3001 112.9508 354° North  Level Estimated
10:22PM 30.4111 112.9374 354° North  Level Estimated
10:23PM 30.5220 112.9240 354° North  Level Estimated
10:24PM 30.6330 112.9105 354° North  Level Estimated
10:25PM 30.7439 112.8970 354° North  Level Estimated
10:26PM 30.8549 112.8835 354° North  Level Estimated
10:27PM 30.9658 112.8700 354° North  Level Estimated
10:28PM 31.0767 112.8564 354° North  Level Estimated
10:29PM 31.1877 112.8428 354° North  Level Estimated
10:30PM 31.2986 112.8291 354° North  Level Estimated
10:31PM 31.4095 112.8154 354° North  Level Estimated
10:32PM 31.5205 112.8017 354° North  Level Estimated
10:33PM 31.6314 112.7880 354° North  Level Estimated
10:34PM 31.7423 112.7742 354° North  Level Estimated
10:35PM 31.8533 112.7604 354° North  Level Estimated
10:36PM 31.9642 112.7465 354° North  Level Estimated
10:37PM 32.0751 112.7326 354° North  Level Estimated
10:38PM 32.1861 112.7187 354° North  Level Estimated
10:39PM 32.2970 112.7048 354° North  Level Estimated
10:40PM 32.4079 112.6908 354° North  Level Estimated
10:41PM 32.5188 112.6768 354° North  Level Estimated
10:42PM 32.6297 112.6627 354° North  Level Estimated
10:43PM 32.7407 112.6487 354° North  Level Estimated
10:44PM 32.8516 112.6345 354° North  Level Estimated
10:45PM 32.9625 112.6204 354° North  Level Estimated
10:46PM 33.0734 112.6062 354° North  Level Estimated
10:47PM 33.1843 112.5920 354° North  Level Estimated
10:48PM 33.2952 112.5777 354° North  Level Estimated
10:49PM 33.4061 112.5634 354° North  Level Estimated
10:50PM 33.5170 112.5491 354° North  Level Estimated
10:51PM 33.6279 112.5347 354° North  Level Estimated
10:52PM 33.7388 112.5203 354° North  Level Estimated
10:53PM 33.8498 112.5058 354° North  Level Estimated
10:54PM 33.9607 112.4913 354° North  Level Estimated
10:55PM 34.0715 112.4768 354° North  Level Estimated
10:56PM 34.1824 112.4623 354° North  Level Estimated
10:57PM 34.2933 112.4477 354° North  Level Estimated
10:58PM 34.4042 112.4330 354° North  Level Estimated
10:59PM 34.5151 112.4184 354° North  Level Estimated
11:00PM 34.6260 112.4036 354° North  Level Estimated
11:01PM 34.7369 112.3889 354° North  Level Estimated
11:02PM 34.7411 112.3883 354° North  Level Estimated
11:03PM 34.7411 112.3883 68° East  Level Estimated
11:04PM 34.7411 112.3883 68° East  Level Estimated
11:05PM 34.7411 112.3883 68° East  Level Estimated
11:06PM 34.7411 112.3883 68° East  Level Estimated
11:07PM 34.7411 112.3883 68° East  Level Estimated